createdAt,value
2023-08-26T00:01:53.991Z,99851.19
2023-08-26T00:04:22.947Z,100048.91
2023-08-26T00:06:50.813Z,99838.81
2023-08-26T00:09:18.578Z,99840.38
2023-08-26T00:11:46.307Z,99865.28
2023-08-26T00:14:14.122Z,99859.78
2023-08-26T00:16:41.888Z,99860.84
2023-08-26T00:19:09.660Z,99869.53
2023-08-26T00:21:38.828Z,99869.13
2023-08-26T00:24:07.230Z,99866.00
2023-08-26T00:26:35.406Z,99860.19
2023-08-26T00:29:03.239Z,99854.75
2023-08-26T00:31:31.110Z,99851.47
2023-08-26T00:34:03.377Z,99848.47
2023-08-26T00:36:32.069Z,99848.31
2023-08-26T00:39:00.257Z,99846.44
2023-08-26T00:41:28.124Z,99845.59
2023-08-26T00:43:56.574Z,99853.28
2023-08-26T00:46:24.827Z,99864.84
2023-08-26T00:48:52.708Z,99864.28
2023-08-26T00:51:21.829Z,99879.59
2023-08-26T00:53:50.311Z,99883.44
2023-08-26T00:56:18.373Z,99887.44
2023-08-26T00:58:46.587Z,99890.88
2023-08-26T01:01:15.852Z,99902.75
2023-08-26T01:03:43.720Z,99900.44
2023-08-26T01:06:12.551Z,99906.41
2023-08-26T01:08:40.409Z,99908.28
2023-08-26T01:11:56.684Z,99908.28
2023-08-26T01:14:57.387Z,99906.56
2023-08-26T01:17:26.785Z,99914.00
2023-08-26T01:19:58.107Z,99919.84
2023-08-26T01:22:27.727Z,99920.59
2023-08-26T01:24:56.651Z,99924.44
2023-08-26T01:27:24.456Z,99926.84
2023-08-26T01:29:52.227Z,99924.13
2023-08-26T01:32:44.146Z,99923.44
2023-08-26T01:35:17.169Z,99931.44
2023-08-26T01:37:47.169Z,99932.63
2023-08-26T01:40:16.274Z,99923.91
2023-08-26T01:42:45.614Z,99930.63
2023-08-26T01:45:13.819Z,99936.31
2023-08-26T01:47:41.657Z,99930.78
2023-08-26T01:50:10.039Z,99925.47
2023-08-26T01:52:38.398Z,99935.03
2023-08-26T01:55:06.435Z,99942.88
2023-08-26T01:57:34.281Z,99936.63
2023-08-26T02:00:04.624Z,99942.88
2023-08-26T02:02:43.944Z,99949.16
2023-08-26T02:05:11.777Z,99945.44
2023-08-26T02:07:39.606Z,99943.59
2023-08-26T02:10:08.172Z,99947.16
2023-08-26T02:12:36.007Z,99961.72
2023-08-26T02:15:04.826Z,99961.03
2023-08-26T02:17:35.372Z,99944.03
2023-08-26T02:20:04.516Z,99944.03
2023-08-26T02:22:32.340Z,99960.19
2023-08-26T02:25:00.782Z,99954.59
2023-08-26T02:27:28.452Z,99969.00
2023-08-26T02:29:56.278Z,99973.59
2023-08-26T02:32:24.054Z,99972.88
2023-08-26T02:34:51.844Z,99973.16
2023-08-26T02:37:19.574Z,99972.75
2023-08-26T02:39:47.335Z,99970.19
2023-08-26T02:42:15.076Z,99969.28
2023-08-26T02:44:42.865Z,99968.16
2023-08-26T02:47:10.582Z,99962.47
2023-08-26T02:49:38.373Z,99968.44
2023-08-26T02:52:06.199Z,99978.31
2023-08-26T02:54:34.105Z,99978.44
2023-08-26T02:57:02.056Z,99992.00
2023-08-26T02:59:30.868Z,99987.59
2023-08-26T03:02:07.230Z,99986.47
2023-08-26T03:04:35.416Z,99989.72
2023-08-26T03:07:03.369Z,99997.84
2023-08-26T03:09:31.215Z,99995.16
2023-08-26T03:12:00.068Z,100005.72
2023-08-26T03:14:28.844Z,99996.16
2023-08-26T03:16:56.715Z,99998.28
2023-08-26T03:19:24.633Z,99999.03
2023-08-26T03:21:52.417Z,99989.44
2023-08-26T03:24:20.623Z,100011.56
2023-08-26T03:26:50.182Z,100002.16
2023-08-26T03:29:17.937Z,100009.13
2023-08-26T03:31:45.722Z,100012.44
2023-08-26T03:34:17.957Z,100011.41
2023-08-26T03:36:46.039Z,100012.84
2023-08-26T03:39:13.872Z,100002.72
2023-08-26T03:41:41.951Z,100007.41
2023-08-26T03:44:09.764Z,100022.69
2023-08-26T03:46:37.460Z,100012.84
2023-08-26T03:49:05.296Z,100017.69
2023-08-26T03:51:33.278Z,100029.50
2023-08-26T03:54:01.090Z,100023.63
2023-08-26T03:56:29.526Z,100023.78
2023-08-26T03:58:58.362Z,100025.91
2023-08-26T04:01:26.367Z,100015.94
2023-08-26T04:03:54.372Z,100010.06
2023-08-26T04:06:22.211Z,100023.09
2023-08-26T04:08:50.207Z,100025.22
2023-08-26T04:11:18.750Z,100024.47
2023-08-26T04:13:46.821Z,100039.78
2023-08-26T04:16:16.811Z,100036.31
2023-08-26T04:18:44.686Z,100031.06
2023-08-26T04:21:12.603Z,100031.47
2023-08-26T04:23:40.476Z,100025.59
2023-08-26T04:26:09.331Z,100024.88
2023-08-26T04:28:37.087Z,100015.44
2023-08-26T04:31:05.070Z,100019.31
2023-08-26T04:33:32.792Z,100031.84
2023-08-26T04:36:00.583Z,100039.28
2023-08-26T04:38:28.387Z,100019.28
2023-08-26T04:40:56.244Z,100039.69
2023-08-26T04:43:24.107Z,100033.53
2023-08-26T04:45:53.747Z,100029.13
2023-08-26T04:48:21.772Z,100043.66
2023-08-26T04:50:49.608Z,100036.66
2023-08-26T04:53:18.289Z,100051.06
2023-08-26T04:55:52.130Z,100055.50
2023-08-26T04:58:20.093Z,100056.03
2023-08-26T05:00:48.268Z,100064.75
2023-08-26T05:03:16.740Z,100067.31
2023-08-26T05:05:45.719Z,100069.16
2023-08-26T05:08:13.663Z,100066.59
2023-08-26T05:10:42.708Z,100084.16
2023-08-26T05:13:11.337Z,100091.44
2023-08-26T05:15:39.073Z,100092.44
2023-08-26T05:18:06.970Z,100079.03
2023-08-26T05:20:34.845Z,100088.47
2023-08-26T05:23:03.075Z,100095.34
2023-08-26T05:25:31.015Z,100077.63
2023-08-26T05:27:59.650Z,100104.19
2023-08-26T05:30:28.072Z,100104.88
2023-08-26T05:32:55.952Z,100097.50
2023-08-26T05:35:25.256Z,100113.59
2023-08-26T05:37:53.167Z,100105.63
2023-08-26T05:40:27.733Z,100109.03
2023-08-26T05:42:59.875Z,100097.34
2023-08-26T05:45:29.186Z,100106.34
2023-08-26T05:47:57.312Z,100110.03
2023-08-26T05:50:25.393Z,100112.75
2023-08-26T05:52:53.351Z,100111.31
2023-08-26T05:55:22.132Z,100109.78
2023-08-26T05:57:52.132Z,100104.47
2023-08-26T06:00:19.961Z,100112.78
2023-08-26T06:02:51.057Z,100125.91
2023-08-26T06:05:20.330Z,100127.00
2023-08-26T06:07:53.401Z,100130.47
2023-08-26T06:10:24.422Z,100127.31
2023-08-26T06:12:52.277Z,100128.47
2023-08-26T06:15:22.550Z,100128.34
2023-08-26T06:17:50.888Z,100131.50
2023-08-26T06:20:27.132Z,100140.34
2023-08-26T06:22:54.886Z,100146.38
2023-08-26T06:25:22.799Z,100153.94
2023-08-26T06:27:50.496Z,100156.38
2023-08-26T06:30:18.760Z,100151.44
2023-08-26T06:32:47.084Z,100141.81
2023-08-26T06:35:16.538Z,100154.44
2023-08-26T06:37:44.343Z,100147.03
2023-08-26T06:40:13.255Z,100155.34
2023-08-26T06:42:42.635Z,100153.31
2023-08-26T06:45:16.295Z,100162.06
2023-08-26T06:47:46.246Z,100159.34
2023-08-26T06:50:14.683Z,100153.75
2023-08-26T06:52:42.446Z,100155.06
2023-08-26T06:55:11.441Z,100167.47
2023-08-26T06:57:39.265Z,100153.31
2023-08-26T07:00:09.774Z,100155.91
2023-08-26T07:02:37.988Z,100146.59
2023-08-26T07:05:06.987Z,100150.06
2023-08-26T07:07:34.790Z,100147.59
2023-08-26T07:10:03.045Z,100152.31
2023-08-26T07:12:32.405Z,100144.75
2023-08-26T07:15:00.278Z,100136.75
2023-08-26T07:17:28.303Z,100138.88
2023-08-26T07:19:56.124Z,100156.59
2023-08-26T07:22:29.649Z,100149.31
2023-08-26T07:24:58.052Z,100156.94
2023-08-26T07:27:25.838Z,100154.91
2023-08-26T07:29:53.660Z,100151.50
2023-08-26T07:32:21.483Z,100158.47
2023-08-26T07:34:53.201Z,100165.50
2023-08-26T07:37:21.006Z,100160.91
2023-08-26T07:39:50.967Z,100153.75
2023-08-26T07:42:18.793Z,100156.19
2023-08-26T07:44:46.578Z,100158.03
2023-08-26T07:47:14.448Z,100158.75
2023-08-26T07:49:42.435Z,100158.63
2023-08-26T07:52:10.451Z,100158.63
2023-08-26T07:54:38.258Z,100145.94
2023-08-26T07:57:06.064Z,100158.34
2023-08-26T07:59:34.344Z,100143.50
2023-08-26T08:02:02.154Z,100133.09
2023-08-26T08:04:30.398Z,100131.53
2023-08-26T08:06:58.215Z,100139.09
2023-08-26T08:09:26.161Z,100138.38
2023-08-26T08:11:54.165Z,100150.13
2023-08-26T08:14:22.005Z,100151.00
2023-08-26T08:16:49.751Z,100159.19
2023-08-26T08:19:17.587Z,100139.44
2023-08-26T08:21:45.278Z,100128.28
2023-08-26T08:24:13.064Z,100119.28
2023-08-26T08:26:44.685Z,100125.69
2023-08-26T08:29:12.516Z,100148.25
2023-08-26T08:31:40.297Z,100142.09
2023-08-26T08:34:08.211Z,100155.53
2023-08-26T08:36:35.981Z,100151.09
2023-08-26T08:39:04.465Z,100150.50
2023-08-26T08:41:38.867Z,100145.88
2023-08-26T08:44:14.055Z,100154.00
2023-08-26T08:46:42.922Z,100158.97
2023-08-26T08:49:12.048Z,100161.09
2023-08-26T08:51:40.730Z,100172.25
2023-08-26T08:54:08.909Z,100161.06
2023-08-26T08:56:37.749Z,100164.22
2023-08-26T08:59:10.349Z,100169.53
2023-08-26T09:01:41.725Z,100177.34
2023-08-26T09:04:10.638Z,100171.78
2023-08-26T09:06:39.317Z,100180.34
2023-08-26T09:09:22.790Z,100176.91
2023-08-26T09:12:01.912Z,100177.19
2023-08-26T09:14:29.785Z,100173.00
2023-08-26T09:16:58.030Z,100174.25
2023-08-26T09:19:25.808Z,100169.38
2023-08-26T09:21:55.175Z,100167.03
2023-08-26T09:24:23.291Z,100160.56
2023-08-26T09:27:00.785Z,100158.09
2023-08-26T09:29:28.786Z,100170.84
2023-08-26T09:31:59.560Z,100158.41
2023-08-26T09:34:31.531Z,100152.50
2023-08-26T09:37:00.282Z,100144.00
2023-08-26T09:39:28.939Z,100141.56
2023-08-26T09:41:58.220Z,100137.34
2023-08-26T09:44:27.622Z,100137.91
2023-08-26T09:46:57.926Z,100138.28
2023-08-26T09:49:25.793Z,100124.84
2023-08-26T09:51:54.956Z,100133.09
2023-08-26T09:54:23.146Z,100135.81
2023-08-26T09:56:51.159Z,100135.66
2023-08-26T09:59:19.806Z,100130.94
2023-08-26T10:01:48.636Z,100124.97
2023-08-26T10:04:27.280Z,100125.91
2023-08-26T10:07:00.225Z,100124.88
2023-08-26T10:10:10.293Z,100130.59
2023-08-26T10:12:42.807Z,100137.06
2023-08-26T10:15:18.181Z,100132.44
2023-08-26T10:17:49.703Z,100131.25
2023-08-26T10:20:17.776Z,100131.59
2023-08-26T10:22:46.070Z,100144.72
2023-08-26T10:25:15.155Z,100160.59
2023-08-26T10:27:43.474Z,100156.03
2023-08-26T10:30:11.891Z,100149.00
2023-08-26T10:32:44.510Z,100166.84
2023-08-26T10:35:14.794Z,100162.03
2023-08-26T10:37:42.574Z,100153.41
2023-08-26T10:40:13.961Z,100159.16
2023-08-26T10:43:06.573Z,100144.38
2023-08-26T10:45:34.647Z,100163.16
2023-08-26T10:48:02.510Z,100154.78
2023-08-26T10:50:31.089Z,100155.47
2023-08-26T10:53:00.989Z,100154.91
2023-08-26T10:55:34.146Z,100129.00
2023-08-26T10:58:22.174Z,100119.75
2023-08-26T11:00:53.205Z,100134.38
2023-08-26T11:03:26.832Z,100125.81
2023-08-26T11:06:05.868Z,100127.69
2023-08-26T11:08:37.070Z,100148.19
2023-08-26T11:11:04.896Z,100154.06
2023-08-26T11:13:33.528Z,100152.75
2023-08-26T11:16:01.355Z,100151.72
2023-08-26T11:18:30.292Z,100170.09
2023-08-26T11:21:04.338Z,100195.72
2023-08-26T11:23:34.016Z,100181.53
2023-08-26T11:26:02.328Z,100164.94
2023-08-26T11:28:32.764Z,100168.69
2023-08-26T11:31:01.453Z,100168.84
2023-08-26T11:33:29.482Z,100173.03
2023-08-26T11:36:08.105Z,100170.34
2023-08-26T11:38:38.724Z,100161.53
2023-08-26T11:41:08.364Z,100175.13
2023-08-26T11:43:37.732Z,100175.00
2023-08-26T11:46:07.443Z,100190.16
2023-08-26T11:48:38.085Z,100181.59
2023-08-26T11:51:07.147Z,100175.16
2023-08-26T11:53:38.199Z,100174.72
2023-08-26T11:56:06.635Z,100180.44
2023-08-26T11:58:38.801Z,100161.72
2023-08-26T12:01:09.041Z,100169.56
2023-08-26T12:03:45.597Z,100182.31
2023-08-26T12:06:15.812Z,100182.44
2023-08-26T12:08:45.809Z,100163.44
2023-08-26T12:11:16.934Z,100179.16
2023-08-26T12:13:45.459Z,100201.63
2023-08-26T12:16:17.026Z,100195.19
2023-08-26T12:18:45.112Z,100193.88
2023-08-26T12:21:12.867Z,100178.28
2023-08-26T12:23:42.381Z,100183.13
2023-08-26T12:26:14.106Z,100176.41
2023-08-26T12:28:42.056Z,100166.56
2023-08-26T12:31:10.715Z,100172.13
2023-08-26T12:33:53.725Z,100177.69
2023-08-26T12:36:26.494Z,100175.41
2023-08-26T12:38:54.283Z,100170.88
2023-08-26T12:41:22.302Z,100179.03
2023-08-26T12:43:52.046Z,100183.13
2023-08-26T12:46:19.988Z,100172.84
2023-08-26T12:48:54.978Z,100175.16
2023-08-26T12:51:24.675Z,100178.84
2023-08-26T12:53:52.791Z,100177.69
2023-08-26T12:56:22.864Z,100175.81
2023-08-26T12:59:03.624Z,100174.84
2023-08-26T13:01:31.995Z,100183.00
2023-08-26T13:04:00.653Z,100179.44
2023-08-26T13:06:28.895Z,100175.13
2023-08-26T13:08:56.670Z,100167.84
2023-08-26T13:11:24.376Z,100164.84
2023-08-26T13:13:52.096Z,100162.66
2023-08-26T13:16:23.498Z,100157.34
2023-08-26T13:18:51.365Z,100147.47
2023-08-26T13:21:19.138Z,100149.44
2023-08-26T13:23:47.987Z,100156.19
2023-08-26T13:26:15.866Z,100150.75
2023-08-26T13:28:44.839Z,100166.13
2023-08-26T13:31:13.321Z,100170.59
2023-08-26T13:33:41.446Z,100173.16
2023-08-26T13:36:09.231Z,100156.25
2023-08-26T13:38:37.048Z,100148.97
2023-08-26T13:41:05.336Z,100151.84
2023-08-26T13:43:33.095Z,100162.09
2023-08-26T13:46:00.934Z,100151.63
2023-08-26T13:48:29.604Z,100146.66
2023-08-26T13:50:57.858Z,100156.22
2023-08-26T13:53:25.693Z,100148.22
2023-08-26T13:55:58.650Z,100134.47
2023-08-26T13:58:27.113Z,100125.28
2023-08-26T14:00:58.417Z,100132.31
2023-08-26T14:03:27.596Z,100121.59
2023-08-26T14:05:55.460Z,100130.28
2023-08-26T14:08:24.657Z,100129.84
2023-08-26T14:10:54.967Z,100126.00
2023-08-26T14:13:22.750Z,100118.41
2023-08-26T14:15:50.510Z,100122.03
2023-08-26T14:18:20.329Z,100101.69
2023-08-26T14:20:48.189Z,100095.78
2023-08-26T14:23:15.984Z,100099.19
2023-08-26T14:25:44.854Z,100086.13
2023-08-26T14:28:13.917Z,100092.59
2023-08-26T14:30:41.792Z,100101.63
2023-08-26T14:33:09.647Z,100104.34
2023-08-26T14:35:38.232Z,100096.34
2023-08-26T14:38:05.982Z,100089.03
2023-08-26T14:40:33.810Z,100079.16
2023-08-26T14:43:01.566Z,100073.56
2023-08-26T14:45:29.414Z,100058.53
2023-08-26T14:47:57.687Z,100052.78
2023-08-26T14:50:25.889Z,100027.97
2023-08-26T14:52:53.667Z,100007.56
2023-08-26T14:55:21.538Z,100021.53
2023-08-26T14:57:49.440Z,100006.53
2023-08-26T15:00:17.398Z,100024.00
2023-08-26T15:02:45.441Z,100012.44
2023-08-26T15:05:15.557Z,100000.16
2023-08-26T15:07:43.443Z,100018.91
2023-08-26T15:10:11.259Z,100020.06
2023-08-26T15:12:39.183Z,100021.06
2023-08-26T15:15:07.769Z,100018.19
2023-08-26T15:17:35.671Z,100028.38
2023-08-26T15:20:04.215Z,100024.56
2023-08-26T15:22:31.939Z,100036.00
2023-08-26T15:24:59.762Z,100052.47
2023-08-26T15:27:27.476Z,100058.78
2023-08-26T15:29:55.229Z,100056.06
2023-08-26T15:32:23.021Z,100057.06
2023-08-26T15:34:50.803Z,100057.91
2023-08-26T15:37:18.767Z,100071.38
2023-08-26T15:39:46.557Z,100069.66
2023-08-26T15:42:14.364Z,100074.06
2023-08-26T15:44:42.240Z,100061.50
2023-08-26T15:47:10.001Z,100054.19
2023-08-26T15:49:38.375Z,100054.88
2023-08-26T15:52:07.003Z,100061.03
2023-08-26T15:54:34.815Z,100065.47
2023-08-26T15:57:02.561Z,100064.44
2023-08-26T15:59:30.482Z,100061.72
2023-08-26T16:01:58.872Z,100064.84
2023-08-26T16:04:26.708Z,100059.09
2023-08-26T16:06:54.492Z,100063.34
2023-08-26T16:09:22.763Z,100074.50
2023-08-26T16:11:50.536Z,100077.91
2023-08-26T16:14:18.254Z,100079.59
2023-08-26T16:16:46.228Z,100061.56
2023-08-26T16:19:14.760Z,100064.00
2023-08-26T16:21:42.514Z,100059.56
2023-08-26T16:24:11.250Z,100064.22
2023-08-26T16:26:40.285Z,100064.94
2023-08-26T16:29:08.060Z,100061.19
2023-08-26T16:31:35.865Z,100050.59
2023-08-26T16:34:03.774Z,100060.19
2023-08-26T16:36:31.462Z,100061.03
2023-08-26T16:38:59.901Z,100069.88
2023-08-26T16:41:27.764Z,100062.59
2023-08-26T16:43:55.488Z,100055.41
2023-08-26T16:46:23.247Z,100051.16
2023-08-26T16:48:50.979Z,100060.66
2023-08-26T16:51:18.745Z,100054.34
2023-08-26T16:53:46.613Z,100057.38
2023-08-26T16:56:14.384Z,100064.69
2023-08-26T16:58:42.331Z,100056.28
2023-08-26T17:01:10.218Z,100051.31
2023-08-26T17:03:38.212Z,100040.72
2023-08-26T17:06:06.503Z,100052.06
2023-08-26T17:08:34.315Z,100042.84
2023-08-26T17:11:05.793Z,100042.28
2023-08-26T17:13:33.826Z,100037.94
2023-08-26T17:16:03.747Z,100053.09
2023-08-26T17:18:31.489Z,100032.91
2023-08-26T17:20:59.355Z,100034.09
2023-08-26T17:23:27.509Z,100044.09
2023-08-26T17:25:55.285Z,100043.56
2023-08-26T17:28:23.099Z,100030.25
2023-08-26T17:30:51.039Z,100034.16
2023-08-26T17:33:19.012Z,100045.31
2023-08-26T17:35:46.822Z,100043.91
2023-08-26T17:38:19.976Z,100055.97
2023-08-26T17:40:57.603Z,100042.09
2023-08-26T17:43:25.461Z,100050.88
2023-08-26T17:45:53.636Z,100055.91
2023-08-26T17:48:21.453Z,100065.94
2023-08-26T17:50:53.511Z,100060.50
2023-08-26T17:53:23.443Z,100055.94
2023-08-26T17:55:54.614Z,100062.06
2023-08-26T17:58:22.675Z,100060.81
2023-08-26T18:00:50.565Z,100048.69
2023-08-26T18:03:18.446Z,100064.84
2023-08-26T18:05:46.461Z,100063.28
2023-08-26T18:08:14.477Z,100073.47
2023-08-26T18:10:42.190Z,100071.88
2023-08-26T18:13:09.832Z,100070.59
2023-08-26T18:15:40.165Z,100068.56
2023-08-26T18:18:08.989Z,100068.47
2023-08-26T18:20:37.435Z,100073.75
2023-08-26T18:23:05.508Z,100072.16
2023-08-26T18:25:33.259Z,100070.06
2023-08-26T18:28:01.046Z,100073.78
2023-08-26T18:30:28.777Z,100071.91
2023-08-26T18:32:56.965Z,100080.22
2023-08-26T18:35:24.991Z,100066.34
2023-08-26T18:37:52.757Z,100083.22
2023-08-26T18:40:22.797Z,100079.22
2023-08-26T18:42:51.775Z,100073.13
2023-08-26T18:45:19.482Z,100081.56
2023-08-26T18:47:48.691Z,100077.25
2023-08-26T18:50:16.716Z,100074.84
2023-08-26T18:52:44.450Z,100073.56
2023-08-26T18:55:12.214Z,100076.56
2023-08-26T18:57:40.060Z,100073.97
2023-08-26T19:00:08.785Z,100085.44
2023-08-26T19:02:36.865Z,100082.28
2023-08-26T19:05:05.032Z,100077.81
2023-08-26T19:07:32.840Z,100076.38
2023-08-26T19:10:00.629Z,100084.41
2023-08-26T19:12:28.381Z,100088.41
2023-08-26T19:14:57.948Z,100095.84
2023-08-26T19:17:25.711Z,100089.84
2023-08-26T19:19:53.503Z,100088.41
2023-08-26T19:22:21.289Z,100097.41
2023-08-26T19:24:49.056Z,100097.56
2023-08-26T19:27:18.358Z,100104.97
2023-08-26T19:29:46.127Z,100102.66
2023-08-26T19:32:14.284Z,100101.97
2023-08-26T19:34:46.011Z,100106.25
2023-08-26T19:37:13.824Z,100110.25
2023-08-26T19:39:41.724Z,100103.53
2023-08-26T19:42:09.470Z,100103.78
2023-08-26T19:44:37.258Z,100101.09
2023-08-26T19:47:05.074Z,100074.94
2023-08-26T19:49:32.847Z,100087.22
2023-08-26T19:52:00.621Z,100079.38
2023-08-26T19:54:28.739Z,100087.50
2023-08-26T19:57:09.093Z,100084.63
2023-08-26T19:59:36.790Z,100076.06
2023-08-26T20:02:05.838Z,100075.09
2023-08-26T20:04:33.731Z,100073.66
2023-08-26T20:07:01.555Z,100068.03
2023-08-26T20:09:29.325Z,100063.75
2023-08-26T20:11:57.084Z,100057.31
2023-08-26T20:14:24.785Z,100069.28
2023-08-26T20:16:52.493Z,100059.84
2023-08-26T20:19:20.248Z,100064.81
2023-08-26T20:21:51.112Z,100059.81
2023-08-26T20:24:24.201Z,100064.78
2023-08-26T20:26:52.314Z,100057.91
2023-08-26T20:29:21.758Z,100057.63
2023-08-26T20:31:54.068Z,100055.06
2023-08-26T20:34:22.147Z,100054.88
2023-08-26T20:36:50.306Z,100051.13
2023-08-26T20:39:18.074Z,100056.78
2023-08-26T20:41:45.985Z,100052.63
2023-08-26T20:44:13.931Z,100044.91
2023-08-26T20:46:41.682Z,100042.47
2023-08-26T20:49:09.695Z,100039.31
2023-08-26T20:51:37.484Z,100049.28
2023-08-26T20:54:05.463Z,100045.97
2023-08-26T20:56:33.253Z,100047.13
2023-08-26T20:59:01.010Z,100039.13
2023-08-26T21:01:28.894Z,100036.94
2023-08-26T21:03:57.562Z,100047.31
2023-08-26T21:06:25.376Z,100045.69
2023-08-26T21:08:54.136Z,100064.47
2023-08-26T21:11:23.322Z,100046.94
2023-08-26T21:13:51.264Z,100041.06
2023-08-26T21:16:19.144Z,100041.06
2023-08-26T21:18:46.981Z,100034.31
2023-08-26T21:21:15.428Z,100026.97
2023-08-26T21:23:43.254Z,100033.13
2023-08-26T21:26:11.062Z,100021.56
2023-08-26T21:28:38.984Z,100038.03
2023-08-26T21:31:10.144Z,100039.75
2023-08-26T21:33:38.302Z,100043.72
2023-08-26T21:36:06.693Z,100050.84
2023-08-26T21:38:36.598Z,100051.00
2023-08-26T21:41:05.983Z,100043.34
2023-08-26T21:43:33.810Z,100039.16
2023-08-26T21:46:01.926Z,100030.53
2023-08-26T21:48:29.814Z,100037.03
2023-08-26T21:50:57.912Z,100035.06
2023-08-26T21:53:25.865Z,100033.38
2023-08-26T21:55:53.758Z,100045.69
2023-08-26T21:58:21.748Z,100047.50
2023-08-26T22:00:49.577Z,100035.22
2023-08-26T22:03:18.577Z,100028.34
2023-08-26T22:05:46.464Z,100036.31
2023-08-26T22:08:14.512Z,100040.88
2023-08-26T22:10:42.342Z,100036.47
2023-08-26T22:13:10.369Z,100031.31
2023-08-26T22:15:43.329Z,100025.75
2023-08-26T22:18:12.027Z,100021.47
2023-08-26T22:20:41.382Z,100020.63
2023-08-26T22:23:09.152Z,100024.31
2023-08-26T22:25:37.023Z,100008.19
2023-08-26T22:28:05.278Z,100007.09
2023-08-26T22:30:33.197Z,100003.84
2023-08-26T22:33:01.459Z,99992.91
2023-08-26T22:35:29.527Z,99992.91
2023-08-26T22:37:57.302Z,99999.91
2023-08-26T22:40:25.123Z,100008.03
2023-08-26T22:42:52.842Z,100005.56
2023-08-26T22:45:20.598Z,99977.72
2023-08-26T22:47:48.373Z,99984.47
2023-08-26T22:50:16.135Z,99989.00
2023-08-26T22:52:43.937Z,99982.28
2023-08-26T22:55:11.648Z,99992.50
2023-08-26T22:57:39.393Z,99993.88
2023-08-26T23:00:08.554Z,99989.88
2023-08-26T23:02:37.020Z,99997.13
2023-08-26T23:05:06.256Z,99988.88
2023-08-26T23:07:34.045Z,99977.06
2023-08-26T23:10:03.886Z,99974.34
2023-08-26T23:12:32.423Z,99962.53
2023-08-26T23:15:00.179Z,99949.03
2023-08-26T23:17:28.159Z,99954.44
2023-08-26T23:19:56.038Z,99956.41
2023-08-26T23:22:23.762Z,99965.63
2023-08-26T23:24:51.518Z,99957.53
2023-08-26T23:27:20.572Z,99944.28
2023-08-26T23:29:49.493Z,99951.25
2023-08-26T23:32:18.100Z,99954.81
2023-08-26T23:34:46.131Z,99940.44
2023-08-26T23:37:14.776Z,99938.59
2023-08-26T23:39:42.594Z,99927.66
2023-08-26T23:42:10.464Z,99923.13
2023-08-26T23:44:40.184Z,99914.41
2023-08-26T23:47:07.910Z,99936.78
2023-08-26T23:49:35.649Z,99929.63
2023-08-26T23:52:04.092Z,99930.47
2023-08-26T23:54:31.861Z,99936.63
2023-08-26T23:57:01.182Z,99919.09
2023-08-26T23:59:28.899Z,99917.97
